sensor_id;sensor_type;location;lat;lon;timestamp;temperature;humidity
76996;DHT22;65929;49.062;10.338;2023-09-19T00:00:18;16.20;77.20
76996;DHT22;65929;49.062;10.338;2023-09-19T00:01:22;16.20;77.30
76996;DHT22;65929;49.062;10.338;2023-09-19T00:02:23;16.20;77.30
76996;DHT22;65929;49.062;10.338;2023-09-19T00:03:24;16.20;77.40
76996;DHT22;65929;49.062;10.338;2023-09-19T00:04:26;16.20;77.80
76996;DHT22;65929;49.062;10.338;2023-09-19T00:05:29;16.20;77.50
76996;DHT22;65929;49.062;10.338;2023-09-19T00:06:34;16.20;77.70
76996;DHT22;65929;49.062;10.338;2023-09-19T00:27:07;16.00;79.00
76996;DHT22;65929;49.062;10.338;2023-09-19T00:28:09;16.00;78.80
76996;DHT22;65929;49.062;10.338;2023-09-19T00:29:10;16.00;78.90
76996;DHT22;65929;49.062;10.338;2023-09-19T00:30:12;16.00;79.20
76996;DHT22;65929;49.062;10.338;2023-09-19T00:31:22;16.00;79.50
76996;DHT22;65929;49.062;10.338;2023-09-19T00:32:26;15.90;79.70
76996;DHT22;65929;49.062;10.338;2023-09-19T00:33:33;15.80;80.30
76996;DHT22;65929;49.062;10.338;2023-09-19T00:34:34;15.90;80.00
76996;DHT22;65929;49.062;10.338;2023-09-19T00:35:36;15.90;80.00
76996;DHT22;65929;49.062;10.338;2023-09-19T00:36:37;16.00;80.00
76996;DHT22;65929;49.062;10.338;2023-09-19T00:37:43;16.00;79.60
76996;DHT22;65929;49.062;10.338;2023-09-19T00:38:44;16.00;79.80
76996;DHT22;65929;49.062;10.338;2023-09-19T00:39:46;16.00;79.60
76996;DHT22;65929;49.062;10.338;2023-09-19T00:40:48;16.00;79.70
76996;DHT22;65929;49.062;10.338;2023-09-19T00:41:49;16.00;79.50
76996;DHT22;65929;49.062;10.338;2023-09-19T00:42:57;16.00;79.90
76996;DHT22;65929;49.062;10.338;2023-09-19T00:44:00;16.00;79.70
76996;DHT22;65929;49.062;10.338;2023-09-19T00:45:02;16.00;79.80
76996;DHT22;65929;49.062;10.338;2023-09-19T00:46:03;16.00;80.30
76996;DHT22;65929;49.062;10.338;2023-09-19T00:47:06;16.00;79.90
76996;DHT22;65929;49.062;10.338;2023-09-19T00:48:09;16.00;80.20
76996;DHT22;65929;49.062;10.338;2023-09-19T00:49:10;16.00;80.10
76996;DHT22;65929;49.062;10.338;2023-09-19T00:50:12;16.00;80.20
76996;DHT22;65929;49.062;10.338;2023-09-19T00:51:15;16.00;80.30
76996;DHT22;65929;49.062;10.338;2023-09-19T00:52:20;16.00;80.50
76996;DHT22;65929;49.062;10.338;2023-09-19T00:53:22;16.00;80.10
76996;DHT22;65929;49.062;10.338;2023-09-19T00:54:24;16.00;80.30
76996;DHT22;65929;49.062;10.338;2023-09-19T00:55:27;16.00;80.60
76996;DHT22;65929;49.062;10.338;2023-09-19T00:56:30;16.00;80.70
76996;DHT22;65929;49.062;10.338;2023-09-19T00:57:32;16.00;80.70
76996;DHT22;65929;49.062;10.338;2023-09-19T00:58:36;16.00;80.50
76996;DHT22;65929;49.062;10.338;2023-09-19T00:59:37;16.00;80.90
76996;DHT22;65929;49.062;10.338;2023-09-19T01:00:40;16.00;81.20
76996;DHT22;65929;49.062;10.338;2023-09-19T01:01:41;15.90;80.80
76996;DHT22;65929;49.062;10.338;2023-09-19T01:02:43;16.00;81.00
76996;DHT22;65929;49.062;10.338;2023-09-19T01:03:45;15.90;80.90
76996;DHT22;65929;49.062;10.338;2023-09-19T01:04:46;16.00;81.10
76996;DHT22;65929;49.062;10.338;2023-09-19T01:05:47;15.90;81.10
76996;DHT22;65929;49.062;10.338;2023-09-19T01:06:48;15.90;81.00
76996;DHT22;65929;49.062;10.338;2023-09-19T01:07:53;15.90;81.20
76996;DHT22;65929;49.062;10.338;2023-09-19T01:08:54;15.90;81.20
76996;DHT22;65929;49.062;10.338;2023-09-19T01:09:56;15.90;81.20
76996;DHT22;65929;49.062;10.338;2023-09-19T01:11:05;15.90;81.00
76996;DHT22;65929;49.062;10.338;2023-09-19T01:12:09;15.90;81.40
76996;DHT22;65929;49.062;10.338;2023-09-19T01:13:22;15.90;81.30
76996;DHT22;65929;49.062;10.338;2023-09-19T01:14:34;15.80;81.50
76996;DHT22;65929;49.062;10.338;2023-09-19T01:15:44;15.80;81.60
76996;DHT22;65929;49.062;10.338;2023-09-19T01:17:00;15.80;81.70
76996;DHT22;65929;49.062;10.338;2023-09-19T01:18:15;15.80;81.50
76996;DHT22;65929;49.062;10.338;2023-09-19T01:20:59;15.80;81.80
76996;DHT22;65929;49.062;10.338;2023-09-19T01:22:09;15.70;82.00
76996;DHT22;65929;49.062;10.338;2023-09-19T01:23:28;15.60;82.30
76996;DHT22;65929;49.062;10.338;2023-09-19T01:24:55;15.60;82.30
76996;DHT22;65929;49.062;10.338;2023-09-19T01:26:07;15.60;82.60
76996;DHT22;65929;49.062;10.338;2023-09-19T01:27:30;15.60;82.70
76996;DHT22;65929;49.062;10.338;2023-09-19T01:28:53;15.60;82.80
76996;DHT22;65929;49.062;10.338;2023-09-19T01:30:07;15.50;82.90
76996;DHT22;65929;49.062;10.338;2023-09-19T01:31:10;15.50;83.00
76996;DHT22;65929;49.062;10.338;2023-09-19T01:32:15;15.50;83.00
76996;DHT22;65929;49.062;10.338;2023-09-19T01:33:20;15.50;83.20
76996;DHT22;65929;49.062;10.338;2023-09-19T01:34:21;15.50;83.40
76996;DHT22;65929;49.062;10.338;2023-09-19T01:35:22;15.40;83.50
76996;DHT22;65929;49.062;10.338;2023-09-19T01:36:23;15.40;83.40
76996;DHT22;65929;49.062;10.338;2023-09-19T01:37:24;15.40;83.40
76996;DHT22;65929;49.062;10.338;2023-09-19T01:38:26;15.40;83.90
76996;DHT22;65929;49.062;10.338;2023-09-19T01:39:28;15.40;83.70
76996;DHT22;65929;49.062;10.338;2023-09-19T01:40:29;15.40;83.70
76996;DHT22;65929;49.062;10.338;2023-09-19T01:41:41;15.40;83.70
76996;DHT22;65929;49.062;10.338;2023-09-19T01:42:52;15.40;83.70
76996;DHT22;65929;49.062;10.338;2023-09-19T01:43:56;15.30;84.00
76996;DHT22;65929;49.062;10.338;2023-09-19T01:45:06;15.30;84.20
76996;DHT22;65929;49.062;10.338;2023-09-19T01:46:12;15.30;84.30
76996;DHT22;65929;49.062;10.338;2023-09-19T01:47:26;15.20;84.50
76996;DHT22;65929;49.062;10.338;2023-09-19T01:48:34;15.20;84.70
76996;DHT22;65929;49.062;10.338;2023-09-19T01:49:42;15.20;84.80
76996;DHT22;65929;49.062;10.338;2023-09-19T01:50:55;15.20;85.00
76996;DHT22;65929;49.062;10.338;2023-09-19T01:52:04;15.20;84.90
76996;DHT22;65929;49.062;10.338;2023-09-19T01:53:13;15.20;84.90
76996;DHT22;65929;49.062;10.338;2023-09-19T01:54:22;15.20;85.00
76996;DHT22;65929;49.062;10.338;2023-09-19T01:55:28;15.10;85.20
76996;DHT22;65929;49.062;10.338;2023-09-19T01:56:34;15.10;85.30
76996;DHT22;65929;49.062;10.338;2023-09-19T01:57:42;15.00;85.40
76996;DHT22;65929;49.062;10.338;2023-09-19T01:58:47;15.00;85.50
76996;DHT22;65929;49.062;10.338;2023-09-19T01:59:52;15.00;85.50
76996;DHT22;65929;49.062;10.338;2023-09-19T02:00:56;15.00;85.50
76996;DHT22;65929;49.062;10.338;2023-09-19T02:02:01;15.00;85.50
76996;DHT22;65929;49.062;10.338;2023-09-19T02:03:03;15.00;85.60
76996;DHT22;65929;49.062;10.338;2023-09-19T02:04:04;15.00;85.70
76996;DHT22;65929;49.062;10.338;2023-09-19T02:05:06;15.00;85.90
76996;DHT22;65929;49.062;10.338;2023-09-19T02:06:07;15.00;85.80
76996;DHT22;65929;49.062;10.338;2023-09-19T02:07:12;15.00;85.70
76996;DHT22;65929;49.062;10.338;2023-09-19T02:08:16;15.00;85.90
76996;DHT22;65929;49.062;10.338;2023-09-19T02:09:17;15.00;86.00
76996;DHT22;65929;49.062;10.338;2023-09-19T02:10:18;15.00;86.10
76996;DHT22;65929;49.062;10.338;2023-09-19T02:11:19;14.90;86.20
76996;DHT22;65929;49.062;10.338;2023-09-19T02:12:20;14.90;86.30
76996;DHT22;65929;49.062;10.338;2023-09-19T02:13:22;14.90;86.60
76996;DHT22;65929;49.062;10.338;2023-09-19T02:14:28;14.80;86.70
76996;DHT22;65929;49.062;10.338;2023-09-19T02:15:30;14.80;86.80
76996;DHT22;65929;49.062;10.338;2023-09-19T02:16:34;14.80;86.90
76996;DHT22;65929;49.062;10.338;2023-09-19T02:17:35;14.80;86.80
76996;DHT22;65929;49.062;10.338;2023-09-19T02:18:36;14.80;87.00
76996;DHT22;65929;49.062;10.338;2023-09-19T02:19:37;14.80;87.00
76996;DHT22;65929;49.062;10.338;2023-09-19T02:20:39;14.70;86.90
76996;DHT22;65929;49.062;10.338;2023-09-19T02:21:40;14.80;87.00
76996;DHT22;65929;49.062;10.338;2023-09-19T02:22:41;14.70;87.10
76996;DHT22;65929;49.062;10.338;2023-09-19T02:23:42;14.70;87.10
76996;DHT22;65929;49.062;10.338;2023-09-19T02:24:44;14.70;87.10
76996;DHT22;65929;49.062;10.338;2023-09-19T02:25:52;14.70;87.10
76996;DHT22;65929;49.062;10.338;2023-09-19T02:26:53;14.70;87.00
76996;DHT22;65929;49.062;10.338;2023-09-19T02:27:55;14.70;87.00
76996;DHT22;65929;49.062;10.338;2023-09-19T02:28:59;14.80;86.80
76996;DHT22;65929;49.062;10.338;2023-09-19T02:30:00;14.80;86.80
76996;DHT22;65929;49.062;10.338;2023-09-19T02:31:04;14.80;86.60
76996;DHT22;65929;49.062;10.338;2023-09-19T02:32:09;14.80;86.50
76996;DHT22;65929;49.062;10.338;2023-09-19T02:33:10;14.80;86.60
76996;DHT22;65929;49.062;10.338;2023-09-19T02:34:12;14.80;86.50
76996;DHT22;65929;49.062;10.338;2023-09-19T02:35:13;14.80;86.60
76996;DHT22;65929;49.062;10.338;2023-09-19T02:36:15;14.80;86.50
76996;DHT22;65929;49.062;10.338;2023-09-19T02:37:17;14.80;86.70
76996;DHT22;65929;49.062;10.338;2023-09-19T02:38:20;14.80;86.70
76996;DHT22;65929;49.062;10.338;2023-09-19T02:39:25;14.70;86.90
76996;DHT22;65929;49.062;10.338;2023-09-19T02:40:26;14.70;87.10
76996;DHT22;65929;49.062;10.338;2023-09-19T02:41:28;14.70;87.10
76996;DHT22;65929;49.062;10.338;2023-09-19T02:42:30;14.70;87.10
76996;DHT22;65929;49.062;10.338;2023-09-19T02:43:31;14.70;87.20
76996;DHT22;65929;49.062;10.338;2023-09-19T02:44:32;14.70;87.10
76996;DHT22;65929;49.062;10.338;2023-09-19T02:45:33;14.70;87.10
76996;DHT22;65929;49.062;10.338;2023-09-19T02:46:34;14.70;87.20
76996;DHT22;65929;49.062;10.338;2023-09-19T02:47:40;14.70;87.30
76996;DHT22;65929;49.062;10.338;2023-09-19T02:48:41;14.70;87.20
76996;DHT22;65929;49.062;10.338;2023-09-19T02:49:42;14.70;87.30
76996;DHT22;65929;49.062;10.338;2023-09-19T02:50:43;14.70;87.30
76996;DHT22;65929;49.062;10.338;2023-09-19T02:51:45;14.70;87.30
76996;DHT22;65929;49.062;10.338;2023-09-19T02:52:47;14.70;87.20
76996;DHT22;65929;49.062;10.338;2023-09-19T02:53:49;14.70;87.10
76996;DHT22;65929;49.062;10.338;2023-09-19T02:54:52;14.70;87.10
76996;DHT22;65929;49.062;10.338;2023-09-19T02:55:54;14.70;87.10
76996;DHT22;65929;49.062;10.338;2023-09-19T02:56:55;14.70;87.10
76996;DHT22;65929;49.062;10.338;2023-09-19T02:57:56;14.70;87.10
76996;DHT22;65929;49.062;10.338;2023-09-19T02:58:57;14.70;87.20
76996;DHT22;65929;49.062;10.338;2023-09-19T02:59:58;14.70;87.30
76996;DHT22;65929;49.062;10.338;2023-09-19T03:01:08;14.70;87.20
76996;DHT22;65929;49.062;10.338;2023-09-19T03:02:09;14.70;87.00
76996;DHT22;65929;49.062;10.338;2023-09-19T03:03:11;14.70;87.00
76996;DHT22;65929;49.062;10.338;2023-09-19T03:04:13;14.70;87.20
76996;DHT22;65929;49.062;10.338;2023-09-19T03:05:14;14.70;87.20
76996;DHT22;65929;49.062;10.338;2023-09-19T03:06:16;14.70;87.20
76996;DHT22;65929;49.062;10.338;2023-09-19T03:07:20;14.70;87.40
76996;DHT22;65929;49.062;10.338;2023-09-19T03:08:21;14.60;87.40
76996;DHT22;65929;49.062;10.338;2023-09-19T03:09:22;14.60;87.50
76996;DHT22;65929;49.062;10.338;2023-09-19T03:10:23;14.60;87.70
76996;DHT22;65929;49.062;10.338;2023-09-19T03:11:25;14.60;87.60
76996;DHT22;65929;49.062;10.338;2023-09-19T03:12:26;14.60;87.50
76996;DHT22;65929;49.062;10.338;2023-09-19T03:13:27;14.60;87.50
76996;DHT22;65929;49.062;10.338;2023-09-19T03:14:31;14.60;87.60
76996;DHT22;65929;49.062;10.338;2023-09-19T03:15:35;14.60;87.80
76996;DHT22;65929;49.062;10.338;2023-09-19T03:16:39;14.50;87.80
76996;DHT22;65929;49.062;10.338;2023-09-19T03:17:43;14.50;87.90
76996;DHT22;65929;49.062;10.338;2023-09-19T03:18:46;14.50;87.90
76996;DHT22;65929;49.062;10.338;2023-09-19T03:19:48;14.50;88.10
76996;DHT22;65929;49.062;10.338;2023-09-19T03:20:53;14.40;88.20
76996;DHT22;65929;49.062;10.338;2023-09-19T03:21:55;14.40;88.30
76996;DHT22;65929;49.062;10.338;2023-09-19T03:22:58;14.40;88.40
76996;DHT22;65929;49.062;10.338;2023-09-19T03:24:00;14.40;88.40
76996;DHT22;65929;49.062;10.338;2023-09-19T03:25:01;14.40;88.40
76996;DHT22;65929;49.062;10.338;2023-09-19T03:26:02;14.30;88.60
76996;DHT22;65929;49.062;10.338;2023-09-19T03:27:05;14.30;88.90
76996;DHT22;65929;49.062;10.338;2023-09-19T03:28:06;14.30;89.00
76996;DHT22;65929;49.062;10.338;2023-09-19T03:29:08;14.30;89.00
76996;DHT22;65929;49.062;10.338;2023-09-19T03:30:11;14.30;89.00
76996;DHT22;65929;49.062;10.338;2023-09-19T03:31:14;14.30;89.00
76996;DHT22;65929;49.062;10.338;2023-09-19T03:32:15;14.20;89.10
76996;DHT22;65929;49.062;10.338;2023-09-19T03:33:16;14.20;89.10
76996;DHT22;65929;49.062;10.338;2023-09-19T03:34:18;14.30;89.10
76996;DHT22;65929;49.062;10.338;2023-09-19T03:35:19;14.30;89.10
76996;DHT22;65929;49.062;10.338;2023-09-19T03:36:20;14.30;88.90
76996;DHT22;65929;49.062;10.338;2023-09-19T03:37:21;14.30;89.00
76996;DHT22;65929;49.062;10.338;2023-09-19T03:38:22;14.30;88.90
76996;DHT22;65929;49.062;10.338;2023-09-19T03:39:23;14.30;89.00
76996;DHT22;65929;49.062;10.338;2023-09-19T03:40:24;14.20;89.20
76996;DHT22;65929;49.062;10.338;2023-09-19T03:41:26;14.20;89.20
76996;DHT22;65929;49.062;10.338;2023-09-19T03:42:27;14.20;89.20
76996;DHT22;65929;49.062;10.338;2023-09-19T03:43:28;14.10;89.30
76996;DHT22;65929;49.062;10.338;2023-09-19T03:44:29;14.10;89.40
76996;DHT22;65929;49.062;10.338;2023-09-19T03:45:30;14.10;89.70
76996;DHT22;65929;49.062;10.338;2023-09-19T03:46:31;14.10;89.70
76996;DHT22;65929;49.062;10.338;2023-09-19T03:47:32;14.00;89.70
76996;DHT22;65929;49.062;10.338;2023-09-19T03:48:34;14.00;89.70
76996;DHT22;65929;49.062;10.338;2023-09-19T03:49:36;14.00;90.00
76996;DHT22;65929;49.062;10.338;2023-09-19T03:50:37;14.00;90.00
76996;DHT22;65929;49.062;10.338;2023-09-19T03:51:38;14.00;90.00
76996;DHT22;65929;49.062;10.338;2023-09-19T03:52:40;14.00;90.00
76996;DHT22;65929;49.062;10.338;2023-09-19T03:53:41;14.00;89.90
76996;DHT22;65929;49.062;10.338;2023-09-19T03:54:42;14.00;89.90
76996;DHT22;65929;49.062;10.338;2023-09-19T03:55:45;14.00;89.90
76996;DHT22;65929;49.062;10.338;2023-09-19T03:56:46;14.00;90.20
76996;DHT22;65929;49.062;10.338;2023-09-19T03:57:48;14.00;90.20
76996;DHT22;65929;49.062;10.338;2023-09-19T03:58:50;13.90;90.40
76996;DHT22;65929;49.062;10.338;2023-09-19T03:59:51;13.90;90.40
76996;DHT22;65929;49.062;10.338;2023-09-19T04:00:55;13.90;90.40
76996;DHT22;65929;49.062;10.338;2023-09-19T04:01:56;13.70;90.70
76996;DHT22;65929;49.062;10.338;2023-09-19T04:02:58;13.70;91.10
76996;DHT22;65929;49.062;10.338;2023-09-19T04:04:01;13.80;91.20
76996;DHT22;65929;49.062;10.338;2023-09-19T04:05:10;13.80;90.90
76996;DHT22;65929;49.062;10.338;2023-09-19T04:06:11;13.80;90.80
76996;DHT22;65929;49.062;10.338;2023-09-19T04:07:12;13.80;90.90
76996;DHT22;65929;49.062;10.338;2023-09-19T04:08:13;13.80;91.10
76996;DHT22;65929;49.062;10.338;2023-09-19T04:09:14;13.70;91.10
76996;DHT22;65929;49.062;10.338;2023-09-19T04:10:16;13.80;91.10
76996;DHT22;65929;49.062;10.338;2023-09-19T04:11:17;13.80;90.90
76996;DHT22;65929;49.062;10.338;2023-09-19T04:12:17;13.80;91.00
76996;DHT22;65929;49.062;10.338;2023-09-19T04:13:18;13.80;91.00
76996;DHT22;65929;49.062;10.338;2023-09-19T04:14:19;13.80;91.10
76996;DHT22;65929;49.062;10.338;2023-09-19T04:15:20;13.70;91.00
76996;DHT22;65929;49.062;10.338;2023-09-19T04:16:24;13.70;91.30
76996;DHT22;65929;49.062;10.338;2023-09-19T04:17:25;13.70;91.40
76996;DHT22;65929;49.062;10.338;2023-09-19T04:18:26;13.70;91.60
76996;DHT22;65929;49.062;10.338;2023-09-19T04:19:27;13.70;91.70
76996;DHT22;65929;49.062;10.338;2023-09-19T04:20:31;13.70;91.70
76996;DHT22;65929;49.062;10.338;2023-09-19T04:21:33;13.70;91.60
76996;DHT22;65929;49.062;10.338;2023-09-19T04:22:33;13.70;91.70
76996;DHT22;65929;49.062;10.338;2023-09-19T04:23:34;13.70;91.80
76996;DHT22;65929;49.062;10.338;2023-09-19T04:24:35;13.70;91.80
76996;DHT22;65929;49.062;10.338;2023-09-19T04:25:36;13.70;91.80
76996;DHT22;65929;49.062;10.338;2023-09-19T04:26:37;13.70;91.90
76996;DHT22;65929;49.062;10.338;2023-09-19T04:27:38;13.70;91.80
76996;DHT22;65929;49.062;10.338;2023-09-19T04:28:39;13.70;91.70
76996;DHT22;65929;49.062;10.338;2023-09-19T04:29:41;13.80;91.60
76996;DHT22;65929;49.062;10.338;2023-09-19T04:30:45;13.90;91.40
76996;DHT22;65929;49.062;10.338;2023-09-19T04:31:46;13.90;91.30
76996;DHT22;65929;49.062;10.338;2023-09-19T04:32:46;13.90;91.30
76996;DHT22;65929;49.062;10.338;2023-09-19T04:33:51;13.90;91.10
76996;DHT22;65929;49.062;10.338;2023-09-19T04:34:52;13.90;90.90
76996;DHT22;65929;49.062;10.338;2023-09-19T04:35:56;13.90;90.80
76996;DHT22;65929;49.062;10.338;2023-09-19T04:36:57;13.90;90.90
76996;DHT22;65929;49.062;10.338;2023-09-19T04:38:01;14.00;90.80
76996;DHT22;65929;49.062;10.338;2023-09-19T04:39:04;14.00;90.80
76996;DHT22;65929;49.062;10.338;2023-09-19T04:40:09;14.00;90.70
76996;DHT22;65929;49.062;10.338;2023-09-19T04:41:13;14.00;90.70
76996;DHT22;65929;49.062;10.338;2023-09-19T04:42:15;14.00;90.60
76996;DHT22;65929;49.062;10.338;2023-09-19T04:43:17;14.00;90.40
76996;DHT22;65929;49.062;10.338;2023-09-19T04:44:18;14.10;90.40
76996;DHT22;65929;49.062;10.338;2023-09-19T04:45:19;14.10;90.30
76996;DHT22;65929;49.062;10.338;2023-09-19T04:46:20;14.10;90.40
76996;DHT22;65929;49.062;10.338;2023-09-19T04:47:22;14.10;90.50
76996;DHT22;65929;49.062;10.338;2023-09-19T04:48:23;14.10;90.40
76996;DHT22;65929;49.062;10.338;2023-09-19T04:49:27;14.10;90.40
76996;DHT22;65929;49.062;10.338;2023-09-19T04:50:27;14.10;90.30
76996;DHT22;65929;49.062;10.338;2023-09-19T04:51:30;14.10;90.10
76996;DHT22;65929;49.062;10.338;2023-09-19T04:52:34;14.20;90.20
76996;DHT22;65929;49.062;10.338;2023-09-19T04:53:35;14.20;90.20
76996;DHT22;65929;49.062;10.338;2023-09-19T04:54:36;14.20;90.10
76996;DHT22;65929;49.062;10.338;2023-09-19T04:55:38;14.20;90.00
76996;DHT22;65929;49.062;10.338;2023-09-19T04:56:39;14.30;90.00
76996;DHT22;65929;49.062;10.338;2023-09-19T04:57:41;14.30;89.80
76996;DHT22;65929;49.062;10.338;2023-09-19T04:58:42;14.30;89.70
76996;DHT22;65929;49.062;10.338;2023-09-19T04:59:42;14.30;89.60
76996;DHT22;65929;49.062;10.338;2023-09-19T05:00:43;14.40;89.40
76996;DHT22;65929;49.062;10.338;2023-09-19T05:01:44;14.40;89.60
76996;DHT22;65929;49.062;10.338;2023-09-19T05:02:46;14.50;89.50
76996;DHT22;65929;49.062;10.338;2023-09-19T05:03:47;14.50;89.20
76996;DHT22;65929;49.062;10.338;2023-09-19T05:04:52;14.60;88.80
76996;DHT22;65929;49.062;10.338;2023-09-19T05:05:54;14.60;88.10
76996;DHT22;65929;49.062;10.338;2023-09-19T05:06:56;14.70;87.80
76996;DHT22;65929;49.062;10.338;2023-09-19T05:07:57;14.80;87.90
76996;DHT22;65929;49.062;10.338;2023-09-19T05:08:59;14.80;87.80
76996;DHT22;65929;49.062;10.338;2023-09-19T05:10:01;14.80;88.00
76996;DHT22;65929;49.062;10.338;2023-09-19T05:11:02;14.80;87.80
76996;DHT22;65929;49.062;10.338;2023-09-19T05:12:03;14.80;87.60
76996;DHT22;65929;49.062;10.338;2023-09-19T05:13:04;14.80;87.40
76996;DHT22;65929;49.062;10.338;2023-09-19T05:14:05;14.80;87.20
76996;DHT22;65929;49.062;10.338;2023-09-19T05:15:07;14.90;87.10
76996;DHT22;65929;49.062;10.338;2023-09-19T05:16:08;14.90;87.00
76996;DHT22;65929;49.062;10.338;2023-09-19T05:17:11;14.90;86.90
76996;DHT22;65929;49.062;10.338;2023-09-19T05:18:11;14.90;87.10
76996;DHT22;65929;49.062;10.338;2023-09-19T05:19:12;14.90;86.90
76996;DHT22;65929;49.062;10.338;2023-09-19T05:20:13;14.90;86.80
76996;DHT22;65929;49.062;10.338;2023-09-19T05:21:19;14.90;87.20
76996;DHT22;65929;49.062;10.338;2023-09-19T05:22:21;14.80;86.80
76996;DHT22;65929;49.062;10.338;2023-09-19T05:23:22;14.80;86.90
76996;DHT22;65929;49.062;10.338;2023-09-19T05:24:23;14.90;86.80
76996;DHT22;65929;49.062;10.338;2023-09-19T05:25:24;14.90;86.90
76996;DHT22;65929;49.062;10.338;2023-09-19T05:26:25;14.90;86.90
76996;DHT22;65929;49.062;10.338;2023-09-19T05:27:26;14.90;86.70
76996;DHT22;65929;49.062;10.338;2023-09-19T05:28:27;14.90;86.70
76996;DHT22;65929;49.062;10.338;2023-09-19T05:29:28;14.90;86.80
76996;DHT22;65929;49.062;10.338;2023-09-19T05:30:29;14.90;87.10
76996;DHT22;65929;49.062;10.338;2023-09-19T05:31:30;14.90;87.00
76996;DHT22;65929;49.062;10.338;2023-09-19T05:32:31;14.90;87.20
76996;DHT22;65929;49.062;10.338;2023-09-19T05:33:32;14.90;86.90
76996;DHT22;65929;49.062;10.338;2023-09-19T05:34:33;14.90;86.90
76996;DHT22;65929;49.062;10.338;2023-09-19T05:35:34;14.90;86.90
76996;DHT22;65929;49.062;10.338;2023-09-19T05:36:40;14.90;87.10
76996;DHT22;65929;49.062;10.338;2023-09-19T05:37:42;14.90;86.80
76996;DHT22;65929;49.062;10.338;2023-09-19T05:38:44;14.90;87.10
76996;DHT22;65929;49.062;10.338;2023-09-19T05:39:45;14.90;87.10
76996;DHT22;65929;49.062;10.338;2023-09-19T05:40:46;14.90;87.00
76996;DHT22;65929;49.062;10.338;2023-09-19T05:41:47;14.90;87.20
76996;DHT22;65929;49.062;10.338;2023-09-19T05:42:48;14.90;87.30
76996;DHT22;65929;49.062;10.338;2023-09-19T05:43:51;14.90;87.50
76996;DHT22;65929;49.062;10.338;2023-09-19T05:44:52;14.90;87.30
76996;DHT22;65929;49.062;10.338;2023-09-19T05:45:53;14.90;87.20
76996;DHT22;65929;49.062;10.338;2023-09-19T05:46:57;14.90;87.20
76996;DHT22;65929;49.062;10.338;2023-09-19T05:48:07;15.00;87.00
76996;DHT22;65929;49.062;10.338;2023-09-19T05:49:08;15.00;87.10
76996;DHT22;65929;49.062;10.338;2023-09-19T05:50:10;15.00;87.10
76996;DHT22;65929;49.062;10.338;2023-09-19T05:51:11;15.00;86.70
76996;DHT22;65929;49.062;10.338;2023-09-19T05:52:12;15.00;86.70
76996;DHT22;65929;49.062;10.338;2023-09-19T05:53:14;15.00;86.80
76996;DHT22;65929;49.062;10.338;2023-09-19T05:54:15;15.00;86.70
76996;DHT22;65929;49.062;10.338;2023-09-19T05:55:18;15.00;87.10
76996;DHT22;65929;49.062;10.338;2023-09-19T05:56:18;15.00;87.00
76996;DHT22;65929;49.062;10.338;2023-09-19T05:57:20;15.00;86.50
76996;DHT22;65929;49.062;10.338;2023-09-19T05:58:21;15.00;86.70
76996;DHT22;65929;49.062;10.338;2023-09-19T05:59:22;15.00;86.60
76996;DHT22;65929;49.062;10.338;2023-09-19T06:00:24;15.10;86.80
76996;DHT22;65929;49.062;10.338;2023-09-19T06:01:26;15.10;86.70
76996;DHT22;65929;49.062;10.338;2023-09-19T06:02:27;15.10;86.10
76996;DHT22;65929;49.062;10.338;2023-09-19T06:03:30;15.10;86.20
76996;DHT22;65929;49.062;10.338;2023-09-19T06:04:32;15.20;86.70
76996;DHT22;65929;49.062;10.338;2023-09-19T06:05:33;15.20;86.60
76996;DHT22;65929;49.062;10.338;2023-09-19T06:06:36;15.20;86.40
76996;DHT22;65929;49.062;10.338;2023-09-19T06:07:39;15.20;86.40
76996;DHT22;65929;49.062;10.338;2023-09-19T06:08:41;15.20;86.30
76996;DHT22;65929;49.062;10.338;2023-09-19T06:09:46;15.20;86.20
76996;DHT22;65929;49.062;10.338;2023-09-19T06:10:47;15.30;85.80
76996;DHT22;65929;49.062;10.338;2023-09-19T06:11:48;15.30;85.50
76996;DHT22;65929;49.062;10.338;2023-09-19T06:12:49;15.40;84.80
76996;DHT22;65929;49.062;10.338;2023-09-19T06:13:50;15.40;84.60
76996;DHT22;65929;49.062;10.338;2023-09-19T06:14:51;15.50;84.70
76996;DHT22;65929;49.062;10.338;2023-09-19T06:15:52;15.50;84.20
76996;DHT22;65929;49.062;10.338;2023-09-19T06:16:54;15.60;84.40
76996;DHT22;65929;49.062;10.338;2023-09-19T06:17:56;15.60;84.30
76996;DHT22;65929;49.062;10.338;2023-09-19T06:18:57;15.60;83.60
76996;DHT22;65929;49.062;10.338;2023-09-19T06:19:59;15.60;83.90
76996;DHT22;65929;49.062;10.338;2023-09-19T06:21:00;15.60;84.20
76996;DHT22;65929;49.062;10.338;2023-09-19T06:22:03;15.70;83.00
76996;DHT22;65929;49.062;10.338;2023-09-19T06:23:04;15.80;83.10
76996;DHT22;65929;49.062;10.338;2023-09-19T06:24:07;15.80;83.20
76996;DHT22;65929;49.062;10.338;2023-09-19T06:25:08;15.80;82.60
76996;DHT22;65929;49.062;10.338;2023-09-19T06:26:12;15.80;82.00
76996;DHT22;65929;49.062;10.338;2023-09-19T06:27:14;15.80;81.90
76996;DHT22;65929;49.062;10.338;2023-09-19T06:28:14;15.80;82.00
76996;DHT22;65929;49.062;10.338;2023-09-19T06:29:18;15.80;82.60
76996;DHT22;65929;49.062;10.338;2023-09-19T06:30:21;15.80;82.60
76996;DHT22;65929;49.062;10.338;2023-09-19T06:31:23;15.90;82.80
76996;DHT22;65929;49.062;10.338;2023-09-19T06:32:27;15.90;82.50
76996;DHT22;65929;49.062;10.338;2023-09-19T06:33:28;15.90;82.20
76996;DHT22;65929;49.062;10.338;2023-09-19T06:34:32;15.90;82.00
76996;DHT22;65929;49.062;10.338;2023-09-19T06:35:34;15.80;81.50
76996;DHT22;65929;49.062;10.338;2023-09-19T06:36:35;15.80;81.20
76996;DHT22;65929;49.062;10.338;2023-09-19T06:37:36;15.80;81.50
76996;DHT22;65929;49.062;10.338;2023-09-19T06:38:39;15.80;81.40
76996;DHT22;65929;49.062;10.338;2023-09-19T06:47:08;15.60;82.00
76996;DHT22;65929;49.062;10.338;2023-09-19T06:48:10;15.60;81.60
76996;DHT22;65929;49.062;10.338;2023-09-19T06:49:12;15.60;81.00
76996;DHT22;65929;49.062;10.338;2023-09-19T06:50:15;15.60;81.60
76996;DHT22;65929;49.062;10.338;2023-09-19T06:51:20;15.50;81.80
76996;DHT22;65929;49.062;10.338;2023-09-19T06:52:20;15.50;82.40
76996;DHT22;65929;49.062;10.338;2023-09-19T06:53:21;15.50;82.50
76996;DHT22;65929;49.062;10.338;2023-09-19T06:54:24;15.50;82.40
76996;DHT22;65929;49.062;10.338;2023-09-19T06:55:25;15.40;83.50
76996;DHT22;65929;49.062;10.338;2023-09-19T06:56:28;15.40;83.50
76996;DHT22;65929;49.062;10.338;2023-09-19T06:57:29;15.30;83.40
76996;DHT22;65929;49.062;10.338;2023-09-19T06:58:31;15.30;83.50